Time;durP1;ratioP1;P1;durP2;ratioP2;P2;SDS_P1;SDS_P2;PMS_P1;PMS_P2;Temp;Humidity;BMP_temperature;BMP_pressure;BME280_temperature;BME280_humidity;BME280_pressure;Samples;Min_cycle;Max_cycle;Signal;HPM_P1;HPM_P2
2022/02/28 00:02:11;;;;;;;;;;;19.80;47.70;;;;;;5018487;28;19913;-66
2022/02/28 00:04:37;;;;;;;;;;;19.90;47.70;;;;;;5017253;28;19921;-66
2022/02/28 00:07:02;;;;;;;;;;;19.80;47.80;;;;;;5033448;28;20377;-65
2022/02/28 00:09:28;;;;;;;;;;;19.80;47.70;;;;;;5033913;28;19943;-64
2022/02/28 00:11:53;;;;;;;;;;;19.70;47.80;;;;;;5033699;28;19910;-65
2022/02/28 00:14:19;;;;;;;;;;;19.60;48.00;;;;;;5015501;28;20304;-66
2022/02/28 00:16:44;;;;;;;;;;;19.50;48.40;;;;;;5015324;28;19963;-66
2022/02/28 00:19:10;;;;;;;;;;;19.30;48.50;;;;;;5038501;28;20007;-65
2022/02/28 00:21:35;;;;;;;;;;;19.20;48.60;;;;;;5039214;28;19921;-66
2022/02/28 00:24:00;;;;;;;;;;;19.10;48.80;;;;;;5021273;28;19917;-66
2022/02/28 00:26:26;;;;;;;;;;;19.10;48.90;;;;;;5038639;28;19963;-65
2022/02/28 00:28:51;;;;;;;;;;;19.10;48.90;;;;;;5020275;28;19916;-65
2022/02/28 00:31:19;;;;;;;;;;;19.00;48.90;;;;;;5038984;28;19921;-66
2022/02/28 00:33:45;;;;;;;;;;;19.00;49.10;;;;;;5038955;28;19913;-66
2022/02/28 00:36:10;;;;;;;;;;;18.90;49.10;;;;;;5038236;28;19913;-67
2022/02/28 00:38:36;;;;;;;;;;;18.90;49.10;;;;;;5037327;28;19915;-64
2022/02/28 00:41:01;;;;;;;;;;;18.80;49.30;;;;;;5035780;28;20028;-66
2022/02/28 00:43:27;;;;;;;;;;;18.80;49.40;;;;;;5019440;28;19925;-66
2022/02/28 00:45:52;;;;;;;;;;;18.80;49.30;;;;;;5002357;28;19917;-65
2022/02/28 00:48:18;;;;;;;;;;;18.70;49.40;;;;;;5017804;28;19986;-65
2022/02/28 00:50:43;;;;;;;;;;;18.70;49.50;;;;;;5016813;28;19909;-66
2022/02/28 00:53:08;;;;;;;;;;;18.70;49.40;;;;;;5035584;28;19924;-68
2022/02/28 00:55:34;;;;;;;;;;;18.50;49.50;;;;;;5017288;28;19909;-64
2022/02/28 00:57:59;;;;;;;;;;;18.50;49.80;;;;;;5034051;28;19913;-65
2022/02/28 01:00:25;;;;;;;;;;;18.40;49.90;;;;;;5035013;28;19909;-66
2022/02/28 01:02:50;;;;;;;;;;;18.50;49.80;;;;;;4999899;28;20381;-65
2022/02/28 01:05:16;;;;;;;;;;;18.50;49.70;;;;;;5035138;28;19909;-66
2022/02/28 01:07:41;;;;;;;;;;;18.50;49.70;;;;;;5032359;28;20128;-67
2022/02/28 01:10:08;;;;;;;;;;;18.50;49.60;;;;;;5033736;28;20479;-64
2022/02/28 01:12:33;;;;;;;;;;;18.50;49.50;;;;;;5028874;28;20457;-67
2022/02/28 01:14:58;;;;;;;;;;;18.40;49.60;;;;;;5016035;28;19928;-66
2022/02/28 01:17:24;;;;;;;;;;;18.20;50.00;;;;;;5033785;28;19920;-66
2022/02/28 01:19:50;;;;;;;;;;;18.20;50.10;;;;;;5033470;28;19909;-67
2022/02/28 01:22:16;;;;;;;;;;;18.10;50.10;;;;;;5034599;28;19913;-66
2022/02/28 01:24:41;;;;;;;;;;;18.00;50.20;;;;;;5034507;28;19916;-64
2022/02/28 01:27:07;;;;;;;;;;;17.90;50.50;;;;;;5034581;28;19944;-67
2022/02/28 01:29:32;;;;;;;;;;;17.90;50.30;;;;;;5033434;28;19913;-66
2022/02/28 01:31:57;;;;;;;;;;;17.80;50.40;;;;;;5015551;28;19921;-66
2022/02/28 01:34:23;;;;;;;;;;;17.90;50.30;;;;;;5032862;28;19962;-65
2022/02/28 01:36:48;;;;;;;;;;;17.90;50.30;;;;;;5032805;28;19914;-67
2022/02/28 01:39:14;;;;;;;;;;;17.90;50.20;;;;;;5032048;28;19909;-66
2022/02/28 01:41:39;;;;;;;;;;;17.80;50.30;;;;;;5015765;28;19996;-66
2022/02/28 01:44:05;;;;;;;;;;;17.90;50.30;;;;;;5032713;28;19909;-66
2022/02/28 01:46:31;;;;;;;;;;;17.80;50.20;;;;;;5031873;28;19909;-66
2022/02/28 01:48:56;;;;;;;;;;;17.90;50.10;;;;;;5033357;28;19913;-64
2022/02/28 01:51:22;;;;;;;;;;;17.80;50.10;;;;;;5033595;28;19916;-67
2022/02/28 01:53:47;;;;;;;;;;;17.90;50.00;;;;;;5016058;28;20411;-66
2022/02/28 01:56:13;;;;;;;;;;;17.80;50.10;;;;;;5016250;28;19921;-65
2022/02/28 01:58:38;;;;;;;;;;;17.80;50.10;;;;;;5032004;28;19917;-66
2022/02/28 02:01:04;;;;;;;;;;;17.80;50.20;;;;;;5033361;28;19913;-67
2022/02/28 02:03:29;;;;;;;;;;;17.70;50.30;;;;;;5032985;28;19968;-66
2022/02/28 02:05:55;;;;;;;;;;;17.70;50.40;;;;;;5032426;28;19909;-66
2022/02/28 02:08:20;;;;;;;;;;;17.70;50.30;;;;;;5014662;28;19917;-66
2022/02/28 02:10:46;;;;;;;;;;;17.70;50.30;;;;;;5033083;28;19950;-67
2022/02/28 02:13:11;;;;;;;;;;;17.70;50.30;;;;;;5030091;28;19913;-63
2022/02/28 02:15:37;;;;;;;;;;;17.60;50.50;;;;;;5015067;28;20374;-66
2022/02/28 02:18:04;;;;;;;;;;;17.70;50.40;;;;;;5034501;28;19913;-66
2022/02/28 02:20:29;;;;;;;;;;;17.60;50.30;;;;;;5032498;28;19909;-64
2022/02/28 02:22:54;;;;;;;;;;;17.70;50.20;;;;;;5025035;28;19909;-66
2022/02/28 02:25:20;;;;;;;;;;;17.70;50.20;;;;;;5033620;28;20481;-65
2022/02/28 02:27:45;;;;;;;;;;;17.70;50.10;;;;;;5032724;28;19909;-67
2022/02/28 02:30:11;;;;;;;;;;;17.70;50.10;;;;;;5033505;28;20434;-66
2022/02/28 02:32:36;;;;;;;;;;;17.70;50.10;;;;;;5016668;28;19916;-66
2022/02/28 02:35:02;;;;;;;;;;;17.70;50.10;;;;;;5017031;28;19921;-66
2022/02/28 02:37:27;;;;;;;;;;;17.70;50.00;;;;;;5034757;28;19909;-66
2022/02/28 02:39:53;;;;;;;;;;;17.60;50.30;;;;;;5017451;28;19909;-65
2022/02/28 02:42:18;;;;;;;;;;;17.60;50.30;;;;;;5017316;28;19919;-66
2022/02/28 02:44:43;;;;;;;;;;;17.60;50.30;;;;;;5035331;28;20285;-66
2022/02/28 02:47:09;;;;;;;;;;;17.60;50.20;;;;;;5017821;28;19909;-66
2022/02/28 02:49:34;;;;;;;;;;;17.50;50.10;;;;;;5002027;28;19917;-66
2022/02/28 02:52:00;;;;;;;;;;;17.50;50.40;;;;;;5018816;28;19938;-67
2022/02/28 02:54:25;;;;;;;;;;;17.60;50.20;;;;;;5018653;28;19914;-66
2022/02/28 02:56:51;;;;;;;;;;;17.50;50.20;;;;;;5036422;28;19955;-66
2022/02/28 02:59:16;;;;;;;;;;;17.50;50.20;;;;;;5019363;28;20446;-64
2022/02/28 03:01:41;;;;;;;;;;;17.60;50.20;;;;;;5037558;28;19913;-63
2022/02/28 03:04:07;;;;;;;;;;;17.50;50.10;;;;;;5018031;28;20003;-66
2022/02/28 03:06:34;;;;;;;;;;;17.50;50.10;;;;;;5035602;28;19909;-70
2022/02/28 03:09:00;;;;;;;;;;;17.50;50.10;;;;;;5013512;28;19931;-65
2022/02/28 03:11:25;;;;;;;;;;;17.50;50.00;;;;;;5030017;28;19909;-66
2022/02/28 03:13:51;;;;;;;;;;;17.60;49.90;;;;;;5013332;28;20043;-66
2022/02/28 03:16:16;;;;;;;;;;;17.60;49.90;;;;;;5012447;28;20346;-66
2022/02/28 03:18:41;;;;;;;;;;;17.50;50.00;;;;;;5034206;28;19902;-65
2022/02/28 03:21:07;;;;;;;;;;;17.40;50.10;;;;;;5039966;28;19917;-65
2022/02/28 03:23:33;;;;;;;;;;;17.50;50.10;;;;;;5005767;28;19920;-66
2022/02/28 03:25:59;;;;;;;;;;;17.40;50.20;;;;;;5038240;28;19933;-67
2022/02/28 03:28:24;;;;;;;;;;;17.40;50.40;;;;;;5021001;28;19916;-66
2022/02/28 03:30:50;;;;;;;;;;;17.30;50.70;;;;;;5019202;28;20035;-66
2022/02/28 03:33:15;;;;;;;;;;;17.40;50.80;;;;;;5033011;28;20559;-66
2022/02/28 03:35:40;;;;;;;;;;;17.50;50.60;;;;;;5034281;28;19972;-66
2022/02/28 03:38:06;;;;;;;;;;;17.70;50.50;;;;;;5016590;28;20280;-66
2022/02/28 03:40:31;;;;;;;;;;;17.90;49.90;;;;;;5007049;28;19910;-66
2022/02/28 03:42:58;;;;;;;;;;;18.10;49.50;;;;;;5035300;28;19959;-66
2022/02/28 03:45:23;;;;;;;;;;;18.10;49.50;;;;;;5035228;28;19913;-67
2022/02/28 03:47:49;;;;;;;;;;;18.40;48.80;;;;;;5000685;28;19916;-67
2022/02/28 03:50:14;;;;;;;;;;;18.50;48.40;;;;;;4991578;28;19913;-67
2022/02/28 03:52:40;;;;;;;;;;;18.70;48.40;;;;;;5035416;28;19909;-67
2022/02/28 03:55:05;;;;;;;;;;;18.80;47.90;;;;;;5036400;28;19910;-66
2022/02/28 03:57:31;;;;;;;;;;;19.00;47.40;;;;;;5036477;28;19935;-65
2022/02/28 03:59:56;;;;;;;;;;;19.10;47.10;;;;;;5017624;28;19983;-66
2022/02/28 04:02:22;;;;;;;;;;;19.20;46.80;;;;;;5017961;28;19931;-67
2022/02/28 04:04:47;;;;;;;;;;;19.30;46.50;;;;;;5001572;28;19917;-66
2022/02/28 04:07:13;;;;;;;;;;;19.40;46.40;;;;;;5017610;28;19925;-66
2022/02/28 04:09:39;;;;;;;;;;;19.50;46.10;;;;;;5018514;28;19909;-67
2022/02/28 04:12:05;;;;;;;;;;;19.50;46.20;;;;;;5018897;28;19937;-66
2022/02/28 04:14:30;;;;;;;;;;;19.60;46.00;;;;;;5017751;28;20293;-67
2022/02/28 04:16:56;;;;;;;;;;;19.60;46.10;;;;;;5036442;28;19917;-67
2022/02/28 04:19:21;;;;;;;;;;;19.70;45.80;;;;;;5033795;28;19933;-66
2022/02/28 04:21:47;;;;;;;;;;;19.70;46.00;;;;;;5017109;28;19920;-67
2022/02/28 04:24:12;;;;;;;;;;;19.70;45.80;;;;;;5035237;28;20585;-67
2022/02/28 04:26:38;;;;;;;;;;;19.70;45.90;;;;;;5017038;28;19948;-66
2022/02/28 04:29:04;;;;;;;;;;;19.60;46.00;;;;;;5016996;28;19913;-66
2022/02/28 04:31:29;;;;;;;;;;;19.60;46.00;;;;;;5033337;28;19993;-66
2022/02/28 04:33:54;;;;;;;;;;;19.50;46.10;;;;;;5015312;28;20314;-66
2022/02/28 04:36:20;;;;;;;;;;;19.40;46.20;;;;;;4998317;28;19931;-66
2022/02/28 04:38:45;;;;;;;;;;;19.40;46.50;;;;;;5033292;28;19916;-67
2022/02/28 04:41:11;;;;;;;;;;;19.30;46.50;;;;;;5014811;28;19913;-66
2022/02/28 04:43:36;;;;;;;;;;;19.20;46.80;;;;;;5033195;28;19913;-66
2022/02/28 04:46:02;;;;;;;;;;;19.00;46.90;;;;;;5014611;28;19932;-66
2022/02/28 04:48:27;;;;;;;;;;;19.00;47.20;;;;;;5031056;28;20002;-66
2022/02/28 04:50:55;;;;;;;;;;;18.80;47.30;;;;;;5033272;28;19917;-66
2022/02/28 04:53:23;;;;;;;;;;;18.80;47.80;;;;;;4999781;28;19909;-67
2022/02/28 04:55:51;;;;;;;;;;;18.70;47.60;;;;;;5014950;28;19924;-66
2022/02/28 04:58:17;;;;;;;;;;;18.70;47.80;;;;;;4998185;28;19918;-66
2022/02/28 05:00:43;;;;;;;;;;;18.60;47.80;;;;;;5014337;28;19928;-66
2022/02/28 05:03:08;;;;;;;;;;;18.60;47.90;;;;;;5015053;28;19917;-66
2022/02/28 05:05:34;;;;;;;;;;;18.60;47.90;;;;;;5032125;28;19963;-66
2022/02/28 05:07:59;;;;;;;;;;;18.50;48.10;;;;;;5015223;28;19921;-66
2022/02/28 05:10:25;;;;;;;;;;;18.50;48.10;;;;;;5015193;28;19932;-66
2022/02/28 05:12:50;;;;;;;;;;;18.50;48.20;;;;;;4999170;28;20283;-66
2022/02/28 05:15:16;;;;;;;;;;;18.50;48.20;;;;;;5031695;28;20597;-66
2022/02/28 05:17:41;;;;;;;;;;;18.40;48.10;;;;;;5031949;28;19967;-66
2022/02/28 05:20:07;;;;;;;;;;;18.40;48.30;;;;;;5016553;28;19917;-66
2022/02/28 05:22:32;;;;;;;;;;;18.30;48.30;;;;;;5031536;28;19952;-66
2022/02/28 05:24:58;;;;;;;;;;;18.30;48.30;;;;;;5028543;28;20368;-63
2022/02/28 05:27:23;;;;;;;;;;;18.30;49.10;;;;;;5026536;28;19909;-63
2022/02/28 05:29:49;;;;;;;;;;;18.30;48.50;;;;;;5026258;28;19925;-64
2022/02/28 05:32:14;;;;;;;;;;;18.30;48.70;;;;;;5025984;28;19971;-64
2022/02/28 05:34:39;;;;;;;;;;;18.20;49.00;;;;;;5012092;28;19909;-63
2022/02/28 05:37:05;;;;;;;;;;;18.20;49.70;;;;;;5026786;28;19917;-64
2022/02/28 05:39:30;;;;;;;;;;;18.20;49.10;;;;;;4994604;28;20287;-65
2022/02/28 05:41:56;;;;;;;;;;;18.30;49.20;;;;;;5006784;28;20174;-64
2022/02/28 05:44:21;;;;;;;;;;;18.40;49.30;;;;;;5025866;28;19923;-65
2022/02/28 05:46:47;;;;;;;;;;;18.40;49.40;;;;;;5012257;28;20307;-64
2022/02/28 05:49:12;;;;;;;;;;;18.50;49.20;;;;;;4994834;28;19917;-66
2022/02/28 05:51:38;;;;;;;;;;;18.50;49.20;;;;;;5011774;28;19916;-64
2022/02/28 05:54:03;;;;;;;;;;;18.50;49.10;;;;;;5027160;28;20360;-63
2022/02/28 05:56:29;;;;;;;;;;;18.50;49.30;;;;;;5029368;28;19920;-66
2022/02/28 05:58:55;;;;;;;;;;;18.50;49.50;;;;;;5027756;28;20003;-64
2022/02/28 06:01:20;;;;;;;;;;;18.40;49.80;;;;;;5025761;28;20460;-64
2022/02/28 06:03:46;;;;;;;;;;;18.40;49.70;;;;;;5010218;28;19977;-64
2022/02/28 06:06:11;;;;;;;;;;;18.40;49.70;;;;;;5008982;28;19917;-64
2022/02/28 06:08:37;;;;;;;;;;;18.40;49.80;;;;;;5025783;28;19931;-64
2022/02/28 06:11:03;;;;;;;;;;;18.40;49.80;;;;;;5010814;28;19928;-64
2022/02/28 06:13:28;;;;;;;;;;;18.30;49.80;;;;;;5027255;28;19921;-64
2022/02/28 06:15:54;;;;;;;;;;;18.20;50.10;;;;;;5024303;28;20285;-64
2022/02/28 06:18:19;;;;;;;;;;;18.10;50.10;;;;;;5027914;28;19913;-64
2022/02/28 06:20:45;;;;;;;;;;;18.10;50.20;;;;;;5013561;28;20039;-65
2022/02/28 06:23:14;;;;;;;;;;;18.10;50.20;;;;;;5026301;28;19941;-64
2022/02/28 06:25:43;;;;;;;;;;;18.10;50.00;;;;;;5024988;28;19967;-68
2022/02/28 06:28:08;;;;;;;;;;;18.30;49.80;;;;;;4996114;28;19913;-66
2022/02/28 06:30:33;;;;;;;;;;;18.20;49.70;;;;;;5030711;28;19925;-66
2022/02/28 06:33:00;;;;;;;;;;;18.00;50.50;;;;;;5016992;28;19948;-66
2022/02/28 06:35:25;;;;;;;;;;;17.70;51.40;;;;;;5032369;28;20410;-66
2022/02/28 06:37:50;;;;;;;;;;;17.60;52.10;;;;;;5035640;28;19909;-66
2022/02/28 06:40:16;;;;;;;;;;;17.80;52.00;;;;;;5035275;28;20024;-67
2022/02/28 06:42:41;;;;;;;;;;;17.80;51.90;;;;;;5001426;28;19917;-67
2022/02/28 06:45:07;;;;;;;;;;;17.60;52.40;;;;;;5035534;28;19924;-65
2022/02/28 06:47:33;;;;;;;;;;;17.50;52.70;;;;;;5034541;28;19909;-67
2022/02/28 06:49:58;;;;;;;;;;;17.50;52.80;;;;;;5016635;28;20380;-67
2022/02/28 06:52:25;;;;;;;;;;;17.50;52.80;;;;;;5017993;28;19921;-67
2022/02/28 06:54:53;;;;;;;;;;;17.40;52.80;;;;;;5016747;28;19909;-67
2022/02/28 06:57:18;;;;;;;;;;;17.40;52.60;;;;;;5019137;28;19913;-67
2022/02/28 06:59:44;;;;;;;;;;;17.50;52.50;;;;;;5017662;28;19960;-66
2022/02/28 07:02:09;;;;;;;;;;;17.60;52.10;;;;;;5021875;28;19913;-66
2022/02/28 07:04:35;;;;;;;;;;;17.60;51.80;;;;;;5037831;28;19960;-65
2022/02/28 07:07:00;;;;;;;;;;;17.50;51.80;;;;;;5018737;28;19928;-66
2022/02/28 07:09:26;;;;;;;;;;;17.60;51.90;;;;;;5018353;28;19909;-66
2022/02/28 07:11:51;;;;;;;;;;;17.50;51.80;;;;;;5017270;28;19917;-66
2022/02/28 07:14:17;;;;;;;;;;;17.50;51.90;;;;;;5033506;28;19993;-66
2022/02/28 07:16:42;;;;;;;;;;;17.40;51.70;;;;;;5015442;28;19916;-67
2022/02/28 07:19:08;;;;;;;;;;;17.20;52.00;;;;;;5014927;28;19923;-67
2022/02/28 07:21:33;;;;;;;;;;;17.20;51.90;;;;;;5031314;28;19913;-67
2022/02/28 07:24:01;;;;;;;;;;;17.10;51.90;;;;;;5013849;28;19920;-67
2022/02/28 07:26:29;;;;;;;;;;;17.10;51.80;;;;;;5031615;28;19971;-66
2022/02/28 07:28:55;;;;;;;;;;;17.10;52.00;;;;;;5014382;28;20434;-66
2022/02/28 07:31:20;;;;;;;;;;;17.10;51.80;;;;;;5013862;28;19920;-67
2022/02/28 07:33:46;;;;;;;;;;;17.10;51.80;;;;;;5013840;28;19910;-66
2022/02/28 07:36:11;;;;;;;;;;;17.10;51.80;;;;;;5013869;28;19917;-67
2022/02/28 07:38:39;;;;;;;;;;;17.20;51.60;;;;;;5012896;28;21547;-67
2022/02/28 07:41:04;;;;;;;;;;;17.50;51.00;;;;;;5030709;28;19921;-67
2022/02/28 07:43:30;;;;;;;;;;;17.60;50.70;;;;;;5031548;28;19931;-67
2022/02/28 07:45:55;;;;;;;;;;;17.60;50.70;;;;;;5031181;28;19909;-66
2022/02/28 07:48:21;;;;;;;;;;;17.60;50.70;;;;;;5031607;28;20380;-67
2022/02/28 07:50:46;;;;;;;;;;;17.50;50.70;;;;;;4996736;28;19972;-68
2022/02/28 07:53:12;;;;;;;;;;;17.50;50.80;;;;;;5031517;28;20661;-67
2022/02/28 07:55:37;;;;;;;;;;;17.50;50.80;;;;;;5014330;28;19923;-67
2022/02/28 07:58:03;;;;;;;;;;;17.60;50.70;;;;;;5029924;28;19909;-66
2022/02/28 08:00:28;;;;;;;;;;;17.60;50.50;;;;;;5029434;28;19913;-64
2022/02/28 08:02:53;;;;;;;;;;;17.60;50.50;;;;;;5028141;28;20280;-64
2022/02/28 08:05:20;;;;;;;;;;;17.60;50.30;;;;;;5025814;28;19948;-64
2022/02/28 08:07:45;;;;;;;;;;;17.70;50.20;;;;;;5028723;28;20380;-63
2022/02/28 08:10:11;;;;;;;;;;;17.60;50.30;;;;;;5017709;28;19979;-64
2022/02/28 08:12:36;;;;;;;;;;;17.60;50.50;;;;;;5037586;28;20098;-64
2022/02/28 08:15:02;;;;;;;;;;;17.60;50.60;;;;;;5037698;28;19925;-64
2022/02/28 08:17:27;;;;;;;;;;;17.60;50.50;;;;;;5037912;28;19946;-63
2022/02/28 08:19:52;;;;;;;;;;;17.60;50.40;;;;;;5004257;28;19920;-64
2022/02/28 08:22:18;;;;;;;;;;;17.60;50.50;;;;;;5003477;28;19978;-65
2022/02/28 08:24:43;;;;;;;;;;;17.60;50.70;;;;;;5036245;28;19917;-65
2022/02/28 08:27:09;;;;;;;;;;;17.60;50.60;;;;;;5036807;28;20299;-65
2022/02/28 08:29:34;;;;;;;;;;;17.60;50.60;;;;;;5018394;28;19909;-64
2022/02/28 08:32:00;;;;;;;;;;;17.70;50.30;;;;;;5035103;28;20530;-64
2022/02/28 08:34:25;;;;;;;;;;;17.70;50.10;;;;;;5033930;28;19913;-63
2022/02/28 08:36:51;;;;;;;;;;;17.70;50.20;;;;;;5031158;28;19909;-63
2022/02/28 08:39:16;;;;;;;;;;;17.70;50.20;;;;;;5029090;28;19916;-64
2022/02/28 08:41:41;;;;;;;;;;;17.70;50.30;;;;;;5030493;28;19956;-63
2022/02/28 08:44:07;;;;;;;;;;;17.80;50.30;;;;;;5032723;28;19913;-64
2022/02/28 08:46:36;;;;;;;;;;;17.80;50.20;;;;;;5003227;28;19972;-63
2022/02/28 08:49:02;;;;;;;;;;;17.80;50.10;;;;;;5037464;28;19915;-63
2022/02/28 08:51:27;;;;;;;;;;;17.80;50.10;;;;;;5037645;28;19961;-64
2022/02/28 08:53:53;;;;;;;;;;;17.80;50.00;;;;;;5032061;28;20247;-64
2022/02/28 08:56:19;;;;;;;;;;;17.90;49.90;;;;;;5031146;28;19917;-66
2022/02/28 08:58:45;;;;;;;;;;;17.90;49.80;;;;;;5031649;28;19955;-63
2022/02/28 09:01:10;;;;;;;;;;;18.00;49.50;;;;;;5031197;28;19949;-64
2022/02/28 09:03:36;;;;;;;;;;;18.00;49.50;;;;;;5011089;28;19921;-64
2022/02/28 09:06:01;;;;;;;;;;;18.00;49.60;;;;;;5032199;28;19916;-64
2022/02/28 09:08:26;;;;;;;;;;;18.10;49.20;;;;;;5013329;28;19921;-64
2022/02/28 09:10:52;;;;;;;;;;;18.20;49.30;;;;;;5014986;28;19917;-64
2022/02/28 09:13:17;;;;;;;;;;;18.30;49.20;;;;;;5031229;28;19913;-64
2022/02/28 09:15:43;;;;;;;;;;;18.20;49.10;;;;;;5031404;28;19910;-65
2022/02/28 09:18:09;;;;;;;;;;;18.30;49.20;;;;;;5030825;28;19920;-64
2022/02/28 09:20:35;;;;;;;;;;;18.20;49.00;;;;;;5030126;28;19963;-64
2022/02/28 09:23:01;;;;;;;;;;;18.30;48.90;;;;;;5013449;28;20367;-64
2022/02/28 09:25:27;;;;;;;;;;;18.40;48.80;;;;;;5031048;28;19924;-64
2022/02/28 09:27:53;;;;;;;;;;;18.40;48.90;;;;;;5031569;28;20000;-62
2022/02/28 09:30:18;;;;;;;;;;;18.30;48.90;;;;;;5029905;28;20663;-62
2022/02/28 09:32:44;;;;;;;;;;;18.30;48.90;;;;;;5029043;28;19920;-63
2022/02/28 09:35:11;;;;;;;;;;;18.30;48.80;;;;;;5030514;28;19918;-63
2022/02/28 09:37:36;;;;;;;;;;;18.40;48.60;;;;;;5011714;28;19909;-63
2022/02/28 09:40:02;;;;;;;;;;;18.40;48.60;;;;;;5028583;28;20364;-63
2022/02/28 09:42:27;;;;;;;;;;;18.50;48.50;;;;;;5012245;28;19959;-63
2022/02/28 09:44:53;;;;;;;;;;;18.50;48.40;;;;;;5029181;28;20356;-64
2022/02/28 09:47:18;;;;;;;;;;;18.50;48.40;;;;;;5029455;28;19909;-64
2022/02/28 09:49:44;;;;;;;;;;;18.50;48.50;;;;;;5029620;28;19921;-64
2022/02/28 09:52:09;;;;;;;;;;;18.50;48.60;;;;;;5027423;28;19968;-63
2022/02/28 09:54:35;;;;;;;;;;;18.50;48.50;;;;;;5010525;28;19924;-63
2022/02/28 09:57:00;;;;;;;;;;;18.50;48.40;;;;;;5027670;28;19913;-64
2022/02/28 09:59:26;;;;;;;;;;;18.60;48.40;;;;;;4992705;28;19935;-64
2022/02/28 10:01:51;;;;;;;;;;;18.60;48.40;;;;;;5027663;28;19913;-64
2022/02/28 10:04:17;;;;;;;;;;;18.60;48.30;;;;;;5027108;28;19909;-63
2022/02/28 10:06:43;;;;;;;;;;;18.60;48.30;;;;;;5028093;28;19917;-64
2022/02/28 10:09:09;;;;;;;;;;;18.60;48.30;;;;;;5028375;28;20017;-64
2022/02/28 10:11:39;;;;;;;;;;;18.70;48.30;;;;;;5009487;28;19913;-64
2022/02/28 10:14:08;;;;;;;;;;;18.70;48.10;;;;;;5027854;28;19910;-64
2022/02/28 10:16:40;;;;;;;;;;;18.70;48.00;;;;;;5009938;28;19921;-64
2022/02/28 10:19:10;;;;;;;;;;;18.70;48.10;;;;;;4992458;28;19909;-63
2022/02/28 10:21:41;;;;;;;;;;;18.70;48.10;;;;;;4992681;28;20370;-63
2022/02/28 10:24:07;;;;;;;;;;;18.70;48.10;;;;;;5008045;28;19916;-65
2022/02/28 10:26:46;;;;;;;;;;;18.80;48.00;;;;;;5025391;28;19909;-65
2022/02/28 10:29:12;;;;;;;;;;;18.80;47.90;;;;;;5025344;28;19913;-64
2022/02/28 10:31:38;;;;;;;;;;;18.70;47.90;;;;;;4991739;28;20012;-64
2022/02/28 10:34:10;;;;;;;;;;;18.60;48.10;;;;;;5028477;28;19979;-62
2022/02/28 10:36:36;;;;;;;;;;;18.60;48.00;;;;;;5010971;28;20623;-65
2022/02/28 10:39:04;;;;;;;;;;;18.70;48.10;;;;;;5027674;28;19921;-66
2022/02/28 10:41:31;;;;;;;;;;;18.80;47.80;;;;;;5028700;28;20398;-66
2022/02/28 10:43:57;;;;;;;;;;;18.80;47.70;;;;;;5010779;28;19909;-66
2022/02/28 10:46:24;;;;;;;;;;;18.80;47.90;;;;;;4994324;28;19913;-67
2022/02/28 10:48:53;;;;;;;;;;;18.90;48.00;;;;;;5026996;28;19998;-68
2022/02/28 10:51:18;;;;;;;;;;;18.90;47.80;;;;;;5028006;28;19916;-67
2022/02/28 10:53:43;;;;;;;;;;;19.00;47.70;;;;;;5028825;28;19909;-67
2022/02/28 10:56:09;;;;;;;;;;;19.00;47.90;;;;;;5009788;28;19909;-67
2022/02/28 10:58:35;;;;;;;;;;;19.00;47.80;;;;;;5009118;28;20426;-67
2022/02/28 11:01:04;;;;;;;;;;;19.00;48.10;;;;;;5008162;28;19923;-67
2022/02/28 11:03:46;;;;;;;;;;;19.00;48.40;;;;;;5024073;28;19909;-67
2022/02/28 11:06:13;;;;;;;;;;;19.10;48.60;;;;;;4999904;28;19940;-65
2022/02/28 11:08:42;;;;;;;;;;;19.10;49.10;;;;;;5009587;28;20376;-65
2022/02/28 11:11:08;;;;;;;;;;;19.00;49.00;;;;;;5009848;28;20040;-65
2022/02/28 11:13:34;;;;;;;;;;;19.10;49.10;;;;;;5026686;28;19921;-65
2022/02/28 11:15:59;;;;;;;;;;;18.90;49.20;;;;;;5026117;28;20008;-65
2022/02/28 11:18:25;;;;;;;;;;;18.80;49.50;;;;;;5009244;28;19909;-65
2022/02/28 11:20:55;;;;;;;;;;;18.70;49.60;;;;;;4995316;28;19916;-66
2022/02/28 11:23:20;;;;;;;;;;;18.70;49.60;;;;;;5011142;28;19917;-68
2022/02/28 11:25:47;;;;;;;;;;;18.60;49.60;;;;;;5029735;28;20035;-65
2022/02/28 11:28:12;;;;;;;;;;;18.60;49.80;;;;;;5009001;28;19936;-67
2022/02/28 11:30:38;;;;;;;;;;;18.60;50.10;;;;;;5008974;28;20400;-64
2022/02/28 11:33:04;;;;;;;;;;;18.50;50.10;;;;;;5025748;28;19925;-65
2022/02/28 11:35:40;;;;;;;;;;;18.60;50.10;;;;;;5011113;28;19929;-64
2022/02/28 11:38:05;;;;;;;;;;;18.50;50.00;;;;;;5012545;28;19913;-64
2022/02/28 11:40:31;;;;;;;;;;;18.50;50.10;;;;;;5029538;28;19919;-65
2022/02/28 11:43:05;;;;;;;;;;;18.40;50.10;;;;;;4999271;28;19953;-64
2022/02/28 11:45:31;;;;;;;;;;;18.40;50.10;;;;;;5034991;28;19914;-64
2022/02/28 11:48:10;;;;;;;;;;;18.40;50.20;;;;;;5033726;28;19955;-65
2022/02/28 11:50:54;;;;;;;;;;;18.40;50.20;;;;;;5034786;28;19909;-65
2022/02/28 11:53:43;;;;;;;;;;;18.40;50.20;;;;;;5034846;28;19909;-66
2022/02/28 11:56:17;;;;;;;;;;;18.30;50.00;;;;;;5023289;28;20541;-65
2022/02/28 11:58:54;;;;;;;;;;;18.40;50.10;;;;;;5036856;28;20004;-65
2022/02/28 12:01:26;;;;;;;;;;;18.30;50.10;;;;;;5035036;28;19921;-65
2022/02/28 12:04:10;;;;;;;;;;;18.30;50.10;;;;;;5017047;28;19920;-65
2022/02/28 12:06:48;;;;;;;;;;;18.40;50.00;;;;;;5018279;28;19913;-65
2022/02/28 12:09:37;;;;;;;;;;;18.30;50.00;;;;;;5017909;28;20051;-65
2022/02/28 12:12:21;;;;;;;;;;;18.40;50.00;;;;;;5036047;28;19910;-65
2022/02/28 12:14:56;;;;;;;;;;;18.30;49.90;;;;;;5037207;28;19932;-65
2022/02/28 12:17:31;;;;;;;;;;;18.40;49.90;;;;;;5036194;28;19920;-65
2022/02/28 12:20:11;;;;;;;;;;;18.40;49.90;;;;;;5036502;28;19909;-65
2022/02/28 12:22:52;;;;;;;;;;;18.40;49.80;;;;;;5036900;28;19949;-65
2022/02/28 12:25:30;;;;;;;;;;;18.40;49.90;;;;;;5034742;28;20192;-65
2022/02/28 12:27:55;;;;;;;;;;;18.40;49.80;;;;;;5019138;28;19909;-65
2022/02/28 12:30:36;;;;;;;;;;;18.40;49.70;;;;;;5036735;28;19913;-65
2022/02/28 12:33:01;;;;;;;;;;;18.50;49.70;;;;;;5019129;28;19913;-64
2022/02/28 12:35:53;;;;;;;;;;;18.40;49.70;;;;;;5002583;28;19925;-65
2022/02/28 12:38:19;;;;;;;;;;;18.40;49.70;;;;;;4972025;28;20621;-64
2022/02/28 12:40:51;;;;;;;;;;;18.50;49.70;;;;;;5016535;28;19917;-64
2022/02/28 12:43:18;;;;;;;;;;;18.50;49.50;;;;;;5034886;28;19913;-64
2022/02/28 12:45:44;;;;;;;;;;;18.50;49.50;;;;;;5033202;28;19932;-65
2022/02/28 12:48:10;;;;;;;;;;;18.50;49.50;;;;;;5029867;28;20510;-65
2022/02/28 12:50:35;;;;;;;;;;;18.50;49.50;;;;;;4994977;28;20335;-65
2022/02/28 12:53:01;;;;;;;;;;;18.50;49.50;;;;;;5028119;28;20004;-66
2022/02/28 12:55:26;;;;;;;;;;;18.50;49.50;;;;;;5012658;28;19922;-65
2022/02/28 12:57:52;;;;;;;;;;;18.60;49.30;;;;;;5035103;28;19909;-65
2022/02/28 13:00:17;;;;;;;;;;;18.60;49.30;;;;;;5016446;28;20375;-64
2022/02/28 13:02:43;;;;;;;;;;;18.60;49.20;;;;;;5036629;28;19920;-64
2022/02/28 13:05:09;;;;;;;;;;;18.70;49.20;;;;;;5016940;28;19927;-65
2022/02/28 13:07:34;;;;;;;;;;;18.60;48.90;;;;;;4999386;28;19940;-65
2022/02/28 13:10:00;;;;;;;;;;;18.60;49.10;;;;;;5032559;28;19910;-65
2022/02/28 13:12:26;;;;;;;;;;;18.60;49.20;;;;;;5033629;28;19915;-65
2022/02/28 13:14:51;;;;;;;;;;;18.60;49.30;;;;;;5014488;28;19913;-65
2022/02/28 13:17:17;;;;;;;;;;;18.60;49.20;;;;;;4998395;28;19916;-65
2022/02/28 13:19:42;;;;;;;;;;;18.60;49.20;;;;;;5034508;28;19921;-66
2022/02/28 13:22:08;;;;;;;;;;;18.60;49.00;;;;;;5017304;28;19919;-65
2022/02/28 13:24:38;;;;;;;;;;;18.70;49.20;;;;;;5035560;28;20276;-66
2022/02/28 13:27:03;;;;;;;;;;;18.70;48.90;;;;;;5018692;28;19932;-66
2022/02/28 13:29:29;;;;;;;;;;;18.70;49.20;;;;;;5015824;28;19913;-66
2022/02/28 13:31:55;;;;;;;;;;;18.70;49.10;;;;;;5033522;28;19913;-64
2022/02/28 13:34:21;;;;;;;;;;;18.70;49.00;;;;;;5015019;28;20139;-65
2022/02/28 13:36:50;;;;;;;;;;;18.70;49.10;;;;;;5014927;28;19917;-65
2022/02/28 13:39:17;;;;;;;;;;;18.80;49.00;;;;;;4998263;28;19948;-65
2022/02/28 13:41:42;;;;;;;;;;;18.80;49.00;;;;;;5013777;28;20447;-65
2022/02/28 13:44:14;;;;;;;;;;;18.70;49.00;;;;;;5032329;28;19959;-66
2022/02/28 13:46:55;;;;;;;;;;;18.70;49.00;;;;;;5032915;28;19936;-64
2022/02/28 13:49:21;;;;;;;;;;;18.80;48.90;;;;;;5015109;28;19909;-65
2022/02/28 13:51:47;;;;;;;;;;;18.80;49.00;;;;;;5031143;28;19920;-64
2022/02/28 13:54:13;;;;;;;;;;;18.70;48.90;;;;;;4998441;28;20008;-64
2022/02/28 13:56:38;;;;;;;;;;;18.80;49.00;;;;;;4993831;28;19948;-65
2022/02/28 13:59:05;;;;;;;;;;;18.80;48.90;;;;;;5026479;28;19992;-65
2022/02/28 14:01:31;;;;;;;;;;;18.80;49.00;;;;;;5009290;28;20004;-66
2022/02/28 14:04:00;;;;;;;;;;;18.70;49.00;;;;;;5026002;28;20010;-65
2022/02/28 14:06:26;;;;;;;;;;;18.80;49.00;;;;;;4992018;28;20019;-65
2022/02/28 14:08:51;;;;;;;;;;;18.80;49.00;;;;;;5026246;28;19917;-65
2022/02/28 14:11:22;;;;;;;;;;;18.80;49.00;;;;;;5026251;28;19918;-65
2022/02/28 14:13:48;;;;;;;;;;;18.70;48.90;;;;;;5009112;28;19917;-65